Time;durP1;ratioP1;P1;durP2;ratioP2;P2;SDS_P1;SDS_P2;PMS_P1;PMS_P2;Temp;Humidity;BMP_temperature;BMP_pressure;BME280_temperature;BME280_humidity;BME280_pressure;Samples;Min_cycle;Max_cycle;Signal;HPM_P1;HPM_P2
2022/12/10 00:01:41;;;;;;;;;;;-0.90;99.90;;;;;;5028604;28;19909;-65
2022/12/10 00:04:07;;;;;;;;;;;-0.90;99.90;;;;;;5020177;28;19958;-65
2022/12/10 00:06:33;;;;;;;;;;;-0.90;99.90;;;;;;5025347;28;19909;-65
2022/12/10 00:08:59;;;;;;;;;;;-0.90;99.90;;;;;;5025399;28;19959;-65
2022/12/10 00:11:25;;;;;;;;;;;-0.90;99.90;;;;;;5030682;28;19952;-66
2022/12/10 00:13:51;;;;;;;;;;;-0.90;99.90;;;;;;5022952;28;20004;-66
2022/12/10 00:16:18;;;;;;;;;;;-0.90;99.90;;;;;;5025506;28;20022;-65
2022/12/10 00:18:44;;;;;;;;;;;-0.90;99.90;;;;;;5028405;28;19916;-65
2022/12/10 00:21:14;;;;;;;;;;;-0.90;99.90;;;;;;5026853;28;20302;-65
2022/12/10 00:23:40;;;;;;;;;;;-0.90;99.90;;;;;;5024702;28;19909;-65
2022/12/10 00:26:07;;;;;;;;;;;-0.90;99.90;;;;;;5029429;28;19913;-65
2022/12/10 00:28:32;;;;;;;;;;;-0.90;99.90;;;;;;5029859;28;19919;-66
2022/12/10 00:31:04;;;;;;;;;;;-0.90;99.90;;;;;;5026653;28;20382;-66
2022/12/10 00:33:29;;;;;;;;;;;-0.90;99.90;;;;;;5043975;28;19913;-65
2022/12/10 00:35:55;;;;;;;;;;;-0.90;99.90;;;;;;5022799;28;20003;-65
2022/12/10 00:38:20;;;;;;;;;;;-0.90;99.90;;;;;;5027134;28;19917;-65
2022/12/10 00:40:46;;;;;;;;;;;-0.90;99.90;;;;;;5028124;28;19971;-66
2022/12/10 00:43:12;;;;;;;;;;;-0.90;99.90;;;;;;5029992;28;19913;-65
2022/12/10 00:45:37;;;;;;;;;;;-0.90;99.90;;;;;;5044729;28;20438;-65
2022/12/10 00:48:02;;;;;;;;;;;-0.90;99.90;;;;;;5022946;28;19924;-65
2022/12/10 00:50:28;;;;;;;;;;;-0.90;99.90;;;;;;5028954;28;19913;-66
2022/12/10 00:52:54;;;;;;;;;;;-0.90;99.90;;;;;;5026483;28;19914;-65
2022/12/10 00:55:19;;;;;;;;;;;-0.90;99.90;;;;;;5020554;28;20306;-66
2022/12/10 00:57:44;;;;;;;;;;;-0.90;99.90;;;;;;5022871;28;20008;-65
2022/12/10 01:00:10;;;;;;;;;;;-0.90;99.90;;;;;;5028286;28;19913;-65
2022/12/10 01:02:36;;;;;;;;;;;-0.90;99.90;;;;;;5029146;28;20063;-65
2022/12/10 01:05:01;;;;;;;;;;;-0.90;99.90;;;;;;5023093;28;20286;-65
2022/12/10 01:07:26;;;;;;;;;;;-0.90;99.90;;;;;;5029366;28;19917;-65
2022/12/10 01:09:52;;;;;;;;;;;-0.90;99.90;;;;;;5026082;28;19920;-66
2022/12/10 01:12:17;;;;;;;;;;;-0.90;99.90;;;;;;5025965;28;19913;-66
2022/12/10 01:14:43;;;;;;;;;;;-0.90;99.90;;;;;;5020258;28;19935;-65
2022/12/10 01:17:08;;;;;;;;;;;-0.90;99.90;;;;;;5029442;28;19936;-66
2022/12/10 01:19:34;;;;;;;;;;;-0.90;99.90;;;;;;5021802;28;19921;-65
2022/12/10 01:21:59;;;;;;;;;;;-0.90;99.90;;;;;;5029751;28;19914;-66
2022/12/10 01:24:26;;;;;;;;;;;-0.90;99.90;;;;;;5028666;28;20387;-66
2022/12/10 01:26:52;;;;;;;;;;;-0.90;99.90;;;;;;5025851;28;19921;-65
2022/12/10 01:29:18;;;;;;;;;;;-0.90;99.90;;;;;;5024738;28;20387;-65
2022/12/10 01:31:44;;;;;;;;;;;-0.90;99.90;;;;;;5027807;28;19949;-66
2022/12/10 01:34:11;;;;;;;;;;;-0.90;99.90;;;;;;5028221;28;20274;-65
2022/12/10 01:36:38;;;;;;;;;;;-0.90;99.90;;;;;;5023775;28;19987;-65
2022/12/10 01:39:05;;;;;;;;;;;-0.90;99.90;;;;;;5029245;28;19917;-65
2022/12/10 01:41:33;;;;;;;;;;;-0.90;99.90;;;;;;5014208;28;19920;-65
2022/12/10 01:43:58;;;;;;;;;;;-0.90;99.90;;;;;;5027565;28;20446;-65
2022/12/10 01:46:26;;;;;;;;;;;-0.90;99.90;;;;;;5027629;28;20008;-65
2022/12/10 01:48:52;;;;;;;;;;;-0.90;99.90;;;;;;5027873;28;19917;-65
2022/12/10 01:51:17;;;;;;;;;;;-0.90;99.90;;;;;;5033027;28;19924;-65
2022/12/10 01:53:44;;;;;;;;;;;-0.90;99.90;;;;;;5032771;28;20109;-66
2022/12/10 01:56:11;;;;;;;;;;;-0.90;99.90;;;;;;5023436;28;20298;-65
2022/12/10 01:58:37;;;;;;;;;;;-0.90;99.90;;;;;;5024154;28;20320;-65
2022/12/10 02:01:11;;;;;;;;;;;-0.90;99.90;;;;;;5028280;28;19917;-65
2022/12/10 02:03:50;;;;;;;;;;;-0.90;99.90;;;;;;5017999;28;20012;-65
2022/12/10 02:06:19;;;;;;;;;;;-0.90;99.90;;;;;;5027751;28;19971;-65
2022/12/10 02:08:56;;;;;;;;;;;-0.90;99.90;;;;;;5027987;28;19917;-65
2022/12/10 02:11:29;;;;;;;;;;;-0.90;99.90;;;;;;5022312;28;20287;-65
2022/12/10 02:14:08;;;;;;;;;;;-0.90;99.90;;;;;;5024499;28;19917;-65
2022/12/10 02:16:36;;;;;;;;;;;-0.90;99.90;;;;;;5032195;28;19949;-65
2022/12/10 02:19:13;;;;;;;;;;;-1.00;99.90;;;;;;5025013;28;20371;-65
2022/12/10 02:21:40;;;;;;;;;;;-1.00;99.90;;;;;;5032248;28;20076;-65
2022/12/10 02:24:10;;;;;;;;;;;-1.00;99.90;;;;;;5031860;28;19920;-65
2022/12/10 02:26:39;;;;;;;;;;;-0.90;99.90;;;;;;5030087;28;19913;-65
2022/12/10 02:29:07;;;;;;;;;;;-1.00;99.90;;;;;;5027827;28;19979;-64
2022/12/10 02:31:33;;;;;;;;;;;-1.00;99.90;;;;;;5029247;28;19931;-65
2022/12/10 02:34:00;;;;;;;;;;;-0.90;99.90;;;;;;5031802;28;20363;-65
2022/12/10 02:36:28;;;;;;;;;;;-0.90;99.90;;;;;;5027878;28;19910;-65
2022/12/10 02:38:55;;;;;;;;;;;-0.90;99.90;;;;;;5044453;22;20019;-57
2022/12/10 02:41:26;;;;;;;;;;;-0.90;99.90;;;;;;5032054;28;20004;-56
2022/12/10 02:43:53;;;;;;;;;;;-0.90;99.90;;;;;;5028824;28;19928;-60
2022/12/10 02:46:19;;;;;;;;;;;-0.90;99.90;;;;;;5032674;28;19917;-58
2022/12/10 02:48:46;;;;;;;;;;;-0.90;99.90;;;;;;5011874;28;19910;-58
2022/12/10 02:51:12;;;;;;;;;;;-1.00;99.90;;;;;;5012338;28;19917;-57
2022/12/10 02:53:41;;;;;;;;;;;-1.00;99.90;;;;;;5012520;28;19913;-57
2022/12/10 02:56:16;;;;;;;;;;;-1.00;99.90;;;;;;5027283;28;20020;-57
2022/12/10 02:58:42;;;;;;;;;;;-1.00;99.90;;;;;;5008417;28;20060;-58
2022/12/10 03:01:32;;;;;;;;;;;-1.00;99.90;;;;;;5011066;28;20008;-57
2022/12/10 03:04:13;;;;;;;;;;;-1.00;99.90;;;;;;5008998;28;19918;-58
2022/12/10 03:06:52;;;;;;;;;;;-1.00;99.90;;;;;;4994221;28;19917;-58
2022/12/10 03:09:27;;;;;;;;;;;-1.10;99.90;;;;;;5012931;28;19916;-57
2022/12/10 03:11:58;;;;;;;;;;;-1.00;99.90;;;;;;4994401;28;19964;-57
2022/12/10 03:14:28;;;;;;;;;;;-1.10;99.90;;;;;;5010926;28;20002;-55
2022/12/10 03:16:55;;;;;;;;;;;-1.00;99.90;;;;;;4992763;28;19921;-56
2022/12/10 03:19:23;;;;;;;;;;;-1.00;99.90;;;;;;5011283;28;19983;-58
2022/12/10 03:21:50;;;;;;;;;;;-1.00;99.90;;;;;;5011641;28;19913;-58
2022/12/10 03:24:16;;;;;;;;;;;-1.00;99.90;;;;;;5011508;28;19918;-59
2022/12/10 03:26:43;;;;;;;;;;;-1.00;99.90;;;;;;5009887;28;19921;-57
2022/12/10 03:29:10;;;;;;;;;;;-1.00;99.90;;;;;;5011730;28;20003;-59
2022/12/10 03:31:38;;;;;;;;;;;-1.00;99.90;;;;;;5011967;28;19910;-59
2022/12/10 03:34:04;;;;;;;;;;;-1.00;99.90;;;;;;5020934;28;19910;-58
2022/12/10 03:36:30;;;;;;;;;;;-1.00;99.90;;;;;;5011686;28;19932;-58
2022/12/10 03:38:56;;;;;;;;;;;-1.00;99.90;;;;;;5026352;28;19918;-59
2022/12/10 03:41:22;;;;;;;;;;;-1.00;99.90;;;;;;5010542;28;19913;-58
2022/12/10 03:43:52;;;;;;;;;;;-1.00;99.90;;;;;;5009318;28;20436;-59
2022/12/10 03:46:18;;;;;;;;;;;-1.00;99.90;;;;;;5011125;28;19921;-59
2022/12/10 03:48:43;;;;;;;;;;;-1.00;99.90;;;;;;5011438;28;19940;-56
2022/12/10 03:51:09;;;;;;;;;;;-1.00;99.90;;;;;;5010738;28;19913;-58
2022/12/10 03:53:34;;;;;;;;;;;-1.00;99.90;;;;;;5011178;28;19924;-59
2022/12/10 03:56:00;;;;;;;;;;;-1.00;99.90;;;;;;5011107;28;20391;-59
2022/12/10 03:58:25;;;;;;;;;;;-1.00;99.90;;;;;;5008811;28;19910;-58
2022/12/10 04:00:51;;;;;;;;;;;-1.00;99.90;;;;;;5009722;28;20283;-57
2022/12/10 04:03:16;;;;;;;;;;;-1.00;99.90;;;;;;5010003;28;19909;-58
2022/12/10 04:05:41;;;;;;;;;;;-1.10;99.90;;;;;;5010568;28;20412;-58
2022/12/10 04:08:07;;;;;;;;;;;-1.00;99.90;;;;;;5010676;28;20018;-57
2022/12/10 04:10:36;;;;;;;;;;;-1.00;99.90;;;;;;5009408;28;19922;-57
2022/12/10 04:18:30;;;;;;;;;;;-1.00;99.90;;;;;;5010419;28;19979;-58
2022/12/10 04:29:09;;;;;;;;;;;-1.00;99.90;;;;;;5009996;28;19972;-54
2022/12/10 04:31:35;;;;;;;;;;;-1.00;99.90;;;;;;5010295;28;19916;-54
2022/12/10 04:34:00;;;;;;;;;;;-1.00;99.90;;;;;;5008641;28;19913;-56
2022/12/10 04:36:26;;;;;;;;;;;-1.00;99.90;;;;;;5009410;28;19916;-59
2022/12/10 04:38:51;;;;;;;;;;;-1.00;99.90;;;;;;5010025;28;19913;-58
2022/12/10 04:41:17;;;;;;;;;;;-1.00;99.90;;;;;;5010510;28;19913;-59
2022/12/10 04:43:42;;;;;;;;;;;-1.00;99.90;;;;;;5007783;28;20372;-58
2022/12/10 04:46:11;;;;;;;;;;;-1.00;99.90;;;;;;5008064;28;19917;-56
2022/12/10 04:48:37;;;;;;;;;;;-1.00;99.90;;;;;;5010010;28;20257;-57
2022/12/10 04:51:03;;;;;;;;;;;-1.00;99.90;;;;;;4993958;28;19920;-57
2022/12/10 04:53:28;;;;;;;;;;;-1.00;99.90;;;;;;4996841;28;19921;-58
2022/12/10 04:55:54;;;;;;;;;;;-1.00;99.90;;;;;;5009784;28;19968;-59
2022/12/10 04:58:19;;;;;;;;;;;-1.00;99.90;;;;;;5009631;28;20264;-56
2022/12/10 05:00:45;;;;;;;;;;;-1.00;99.90;;;;;;5009743;28;19996;-58
2022/12/10 05:03:11;;;;;;;;;;;-1.00;99.90;;;;;;5010132;28;19914;-57
2022/12/10 05:05:36;;;;;;;;;;;-1.00;99.90;;;;;;5009557;28;20024;-56
2022/12/10 05:08:02;;;;;;;;;;;-1.00;99.90;;;;;;5008588;28;19920;-58
2022/12/10 05:10:27;;;;;;;;;;;-1.00;99.90;;;;;;5006325;28;19917;-58
2022/12/10 05:12:53;;;;;;;;;;;-1.00;99.90;;;;;;4991745;28;19913;-57
2022/12/10 05:15:18;;;;;;;;;;;-1.00;99.90;;;;;;5003221;28;20013;-58
2022/12/10 05:17:44;;;;;;;;;;;-0.90;99.90;;;;;;5007329;28;19914;-57
2022/12/10 05:20:09;;;;;;;;;;;-1.00;99.90;;;;;;5001806;28;20394;-58
2022/12/10 05:25:19;;;;;;;;;;;-1.00;99.90;;;;;;5009082;28;19984;-59
2022/12/10 05:27:45;;;;;;;;;;;-1.00;99.90;;;;;;5001624;28;20403;-58
2022/12/10 05:30:10;;;;;;;;;;;-1.00;99.90;;;;;;5009704;28;20471;-57
2022/12/10 05:32:36;;;;;;;;;;;-1.00;99.90;;;;;;5005183;28;19933;-57
2022/12/10 05:35:01;;;;;;;;;;;-1.00;99.90;;;;;;5009510;28;19971;-57
2022/12/10 05:37:28;;;;;;;;;;;-1.00;99.90;;;;;;5009466;28;19967;-58
2022/12/10 05:39:54;;;;;;;;;;;-1.00;99.90;;;;;;5009652;28;19924;-59
2022/12/10 05:42:19;;;;;;;;;;;-1.00;99.90;;;;;;5009549;28;20407;-57
2022/12/10 05:44:45;;;;;;;;;;;-1.00;99.90;;;;;;5005624;28;19936;-59
2022/12/10 05:47:10;;;;;;;;;;;-1.00;99.90;;;;;;5009557;28;19909;-56
2022/12/10 05:49:37;;;;;;;;;;;-1.00;99.90;;;;;;5008046;28;19909;-56
2022/12/10 05:52:02;;;;;;;;;;;-1.00;99.90;;;;;;5009599;28;19989;-54
2022/12/10 05:54:28;;;;;;;;;;;-1.00;99.90;;;;;;5009502;28;19921;-58
2022/12/10 05:56:54;;;;;;;;;;;-1.00;99.90;;;;;;5024082;28;20336;-57
2022/12/10 05:59:19;;;;;;;;;;;-1.00;99.90;;;;;;5009582;28;19913;-58
2022/12/10 06:01:45;;;;;;;;;;;-1.10;99.90;;;;;;5008213;28;19918;-58
2022/12/10 06:04:11;;;;;;;;;;;-1.10;99.90;;;;;;5009288;28;20380;-57
2022/12/10 06:06:37;;;;;;;;;;;-1.10;99.90;;;;;;5007921;28;19914;-59
2022/12/10 06:09:03;;;;;;;;;;;-1.10;99.90;;;;;;5008843;28;19914;-59
2022/12/10 06:11:29;;;;;;;;;;;-1.10;99.90;;;;;;5009407;28;20208;-57
2022/12/10 06:13:56;;;;;;;;;;;-1.10;99.90;;;;;;5019976;28;19955;-58
2022/12/10 06:16:21;;;;;;;;;;;-1.10;99.90;;;;;;5002224;28;19914;-57
2022/12/10 06:18:47;;;;;;;;;;;-1.10;99.90;;;;;;5000457;28;20362;-59
2022/12/10 06:21:14;;;;;;;;;;;-1.10;99.90;;;;;;5002589;28;19968;-59
2022/12/10 06:23:40;;;;;;;;;;;-1.10;99.90;;;;;;5001992;28;19914;-59
2022/12/10 06:26:14;;;;;;;;;;;-1.10;99.90;;;;;;5008809;28;19917;-56
2022/12/10 06:28:39;;;;;;;;;;;-1.10;99.90;;;;;;5009198;28;19952;-59
2022/12/10 06:31:05;;;;;;;;;;;-1.10;99.90;;;;;;5009351;28;19956;-59
2022/12/10 06:33:30;;;;;;;;;;;-1.10;99.90;;;;;;5008973;28;19914;-58
2022/12/10 06:35:56;;;;;;;;;;;-1.20;99.90;;;;;;5011271;28;19983;-58
2022/12/10 06:38:21;;;;;;;;;;;-1.20;99.90;;;;;;5012195;28;19913;-58
2022/12/10 06:40:47;;;;;;;;;;;-1.10;99.90;;;;;;5012339;28;19975;-59
2022/12/10 06:43:13;;;;;;;;;;;-1.10;99.90;;;;;;5006639;28;19968;-59
2022/12/10 06:45:39;;;;;;;;;;;-1.10;99.90;;;;;;4990390;28;19924;-59
2022/12/10 06:48:04;;;;;;;;;;;-1.10;99.90;;;;;;5012086;28;20027;-57
2022/12/10 06:50:30;;;;;;;;;;;-1.10;99.90;;;;;;5007660;28;19921;-57
2022/12/10 06:52:56;;;;;;;;;;;-1.10;99.90;;;;;;5012342;28;19913;-58
2022/12/10 06:55:21;;;;;;;;;;;-1.10;99.90;;;;;;5026285;28;19920;-56
2022/12/10 06:57:47;;;;;;;;;;;-1.10;99.90;;;;;;5009392;28;19992;-59
2022/12/10 07:00:12;;;;;;;;;;;-1.10;99.90;;;;;;5008226;28;19944;-59
2022/12/10 07:02:38;;;;;;;;;;;-1.10;99.90;;;;;;5003879;28;20368;-56
2022/12/10 07:05:03;;;;;;;;;;;-1.10;99.90;;;;;;5011831;28;19924;-58
2022/12/10 07:07:29;;;;;;;;;;;-1.10;99.90;;;;;;5012034;28;19913;-58
2022/12/10 07:09:55;;;;;;;;;;;-1.10;99.90;;;;;;5010609;28;19960;-57
2022/12/10 07:12:20;;;;;;;;;;;-1.10;99.90;;;;;;5002031;28;19916;-59
2022/12/10 07:14:45;;;;;;;;;;;-1.10;99.90;;;;;;5011180;28;20060;-58
2022/12/10 07:17:11;;;;;;;;;;;-1.10;99.90;;;;;;5011470;28;19910;-59
2022/12/10 07:19:36;;;;;;;;;;;-1.20;99.90;;;;;;5006375;28;19917;-59
2022/12/10 07:22:02;;;;;;;;;;;-1.10;99.90;;;;;;5005629;28;19909;-58
2022/12/10 07:24:28;;;;;;;;;;;-1.10;99.90;;;;;;4995395;28;20011;-56
2022/12/10 07:26:53;;;;;;;;;;;-1.10;99.90;;;;;;5008252;28;19910;-59
2022/12/10 07:29:20;;;;;;;;;;;-1.10;99.90;;;;;;5010125;28;19949;-58
2022/12/10 07:31:47;;;;;;;;;;;-1.10;99.90;;;;;;4994348;28;20384;-58
2022/12/10 07:34:13;;;;;;;;;;;-1.10;99.90;;;;;;4993278;28;19979;-58
2022/12/10 07:36:39;;;;;;;;;;;-1.10;99.90;;;;;;5010780;28;19914;-58
2022/12/10 07:39:05;;;;;;;;;;;-1.10;99.90;;;;;;5008495;28;19918;-58
2022/12/10 07:41:30;;;;;;;;;;;-1.20;99.90;;;;;;5001633;28;19913;-58
2022/12/10 07:43:56;;;;;;;;;;;-1.20;99.90;;;;;;5005822;28;20295;-57
2022/12/10 07:46:26;;;;;;;;;;;-1.20;99.90;;;;;;5011154;28;19999;-58
2022/12/10 07:48:51;;;;;;;;;;;-1.20;99.90;;;;;;5011575;28;19910;-58
2022/12/10 07:51:18;;;;;;;;;;;-1.20;99.90;;;;;;5009870;28;20009;-56
2022/12/10 07:53:43;;;;;;;;;;;-1.20;99.90;;;;;;5011705;28;20005;-54
2022/12/10 07:56:09;;;;;;;;;;;-1.20;99.90;;;;;;5009658;28;20472;-55
2022/12/10 07:58:35;;;;;;;;;;;-1.20;99.90;;;;;;5010069;28;19909;-56
2022/12/10 08:01:11;;;;;;;;;;;-1.20;99.90;;;;;;5008993;28;20083;-58
2022/12/10 08:03:36;;;;;;;;;;;-1.20;99.90;;;;;;5011337;28;19910;-59
2022/12/10 08:06:06;;;;;;;;;;;-1.20;99.90;;;;;;5010703;28;19967;-58
2022/12/10 08:08:35;;;;;;;;;;;-1.20;99.90;;;;;;5009569;28;19914;-58
2022/12/10 08:11:01;;;;;;;;;;;-1.20;99.90;;;;;;5023329;28;19956;-57
2022/12/10 08:13:27;;;;;;;;;;;-1.20;99.90;;;;;;5008834;28;19968;-58
2022/12/10 08:15:53;;;;;;;;;;;-1.20;99.90;;;;;;4999547;28;19913;-59
2022/12/10 08:18:18;;;;;;;;;;;-1.20;99.90;;;;;;5001279;28;19924;-59
2022/12/10 08:20:44;;;;;;;;;;;-1.20;99.90;;;;;;4993288;28;19924;-58
2022/12/10 08:23:09;;;;;;;;;;;-1.20;99.90;;;;;;4993182;28;20423;-57
2022/12/10 08:25:35;;;;;;;;;;;-1.20;99.90;;;;;;5009728;28;19948;-58
2022/12/10 08:28:02;;;;;;;;;;;-1.20;99.90;;;;;;5011348;28;19910;-58
2022/12/10 08:30:28;;;;;;;;;;;-1.30;99.90;;;;;;5010885;28;19996;-59
2022/12/10 08:32:53;;;;;;;;;;;-1.20;99.90;;;;;;5009467;28;19992;-55
2022/12/10 08:35:19;;;;;;;;;;;-1.20;99.90;;;;;;5009021;28;19921;-58
2022/12/10 08:37:45;;;;;;;;;;;-1.20;99.90;;;;;;5010080;28;19913;-59
2022/12/10 08:42:40;;;;;;;;;;;-1.30;99.90;;;;;;5047447;28;20322;-57
2022/12/10 08:45:05;;;;;;;;;;;-1.30;99.90;;;;;;5051990;28;19921;-57
2022/12/10 08:47:31;;;;;;;;;;;-1.30;99.90;;;;;;5048186;28;19909;-59
2022/12/10 08:49:56;;;;;;;;;;;-1.30;99.90;;;;;;5049655;28;19909;-58
2022/12/10 08:52:22;;;;;;;;;;;-1.30;99.90;;;;;;5051263;28;19916;-57
2022/12/10 08:54:47;;;;;;;;;;;-1.30;99.90;;;;;;5048553;28;19999;-59
2022/12/10 08:57:12;;;;;;;;;;;-1.30;99.90;;;;;;5048668;28;19920;-57
2022/12/10 08:59:38;;;;;;;;;;;-1.30;99.90;;;;;;5050981;28;20087;-58
2022/12/10 09:02:03;;;;;;;;;;;-1.20;99.90;;;;;;5049555;28;19908;-59
2022/12/10 09:04:29;;;;;;;;;;;-1.20;99.90;;;;;;5049366;28;19913;-58
2022/12/10 09:06:54;;;;;;;;;;;-1.20;99.90;;;;;;5051794;28;19915;-57
2022/12/10 09:09:20;;;;;;;;;;;-1.20;99.90;;;;;;5043420;28;20336;-59
2022/12/10 09:11:45;;;;;;;;;;;-1.20;99.90;;;;;;5054418;28;19915;-57
2022/12/10 09:14:11;;;;;;;;;;;-1.20;99.90;;;;;;5048592;28;20004;-59
2022/12/10 09:16:38;;;;;;;;;;;-1.20;99.90;;;;;;5036874;28;19913;-58
2022/12/10 09:19:04;;;;;;;;;;;-1.10;99.90;;;;;;5049075;28;19919;-59
2022/12/10 09:21:30;;;;;;;;;;;-1.20;99.90;;;;;;5046625;28;19909;-56
2022/12/10 09:23:56;;;;;;;;;;;-1.10;99.90;;;;;;5038772;28;19963;-57
2022/12/10 09:26:22;;;;;;;;;;;-1.10;99.90;;;;;;5048791;28;20434;-59
2022/12/10 09:28:48;;;;;;;;;;;-1.10;99.90;;;;;;5051263;28;19960;-58
2022/12/10 09:31:15;;;;;;;;;;;-1.10;99.90;;;;;;5049514;28;20272;-55
2022/12/10 09:33:40;;;;;;;;;;;-1.10;99.90;;;;;;5053546;28;19960;-60
2022/12/10 09:36:07;;;;;;;;;;;-1.10;99.90;;;;;;5048835;28;19908;-57
2022/12/10 09:38:37;;;;;;;;;;;-1.10;99.90;;;;;;5053918;28;19915;-58
2022/12/10 09:41:04;;;;;;;;;;;-1.10;99.90;;;;;;5049228;28;19921;-59
2022/12/10 09:43:42;;;;;;;;;;;-1.10;99.90;;;;;;5043392;28;19999;-59
2022/12/10 09:46:31;;;;;;;;;;;-1.10;99.90;;;;;;5052066;28;19927;-59
2022/12/10 09:49:15;;;;;;;;;;;-1.10;99.90;;;;;;5047208;28;19909;-59
2022/12/10 09:51:41;;;;;;;;;;;-1.10;99.90;;;;;;5031239;28;19913;-60
2022/12/10 09:54:27;;;;;;;;;;;-1.10;99.90;;;;;;5051092;28;20354;-58
2022/12/10 09:56:54;;;;;;;;;;;-1.10;99.90;;;;;;5049295;28;20118;-57
2022/12/10 09:59:21;;;;;;;;;;;-1.20;99.90;;;;;;5050827;28;20337;-58
2022/12/10 10:01:50;;;;;;;;;;;-1.10;99.90;;;;;;5051148;28;19913;-58
2022/12/10 10:04:16;;;;;;;;;;;-1.10;99.90;;;;;;5054077;28;20298;-58
2022/12/10 10:06:41;;;;;;;;;;;-1.10;99.90;;;;;;5051386;28;19913;-59
2022/12/10 10:09:11;;;;;;;;;;;-1.10;99.90;;;;;;5049996;28;19912;-57
2022/12/10 10:11:37;;;;;;;;;;;-1.00;99.90;;;;;;5041797;28;19923;-58
2022/12/10 10:14:26;;;;;;;;;;;-1.00;99.90;;;;;;5038658;28;19909;-58
2022/12/10 10:16:58;;;;;;;;;;;-0.90;99.90;;;;;;5054551;28;19919;-57
2022/12/10 10:19:30;;;;;;;;;;;-0.80;99.90;;;;;;5051265;28;20417;-59
2022/12/10 10:21:56;;;;;;;;;;;-0.80;99.90;;;;;;5050865;28;20339;-56
2022/12/10 10:24:23;;;;;;;;;;;-0.80;99.90;;;;;;5051129;28;19963;-57
2022/12/10 10:26:50;;;;;;;;;;;-0.80;99.90;;;;;;5049493;28;19917;-59
2022/12/10 10:29:18;;;;;;;;;;;-0.70;99.90;;;;;;5053944;28;19909;-59
2022/12/10 10:31:44;;;;;;;;;;;-0.70;99.90;;;;;;5054077;28;19916;-58
2022/12/10 10:34:17;;;;;;;;;;;-0.70;99.90;;;;;;5054296;28;19909;-58
2022/12/10 10:36:43;;;;;;;;;;;-0.70;99.90;;;;;;5062478;28;19913;-56
2022/12/10 10:39:30;;;;;;;;;;;-0.70;99.90;;;;;;5058403;28;20003;-60
2022/12/10 10:41:56;;;;;;;;;;;-0.80;99.90;;;;;;5052245;28;19917;-55
2022/12/10 10:44:22;;;;;;;;;;;-0.80;99.90;;;;;;5055372;28;19936;-57
2022/12/10 10:46:50;;;;;;;;;;;-0.80;99.90;;;;;;5053487;28;19917;-55
2022/12/10 10:49:21;;;;;;;;;;;-0.80;99.90;;;;;;5056349;28;20002;-59
2022/12/10 10:51:47;;;;;;;;;;;-0.80;99.90;;;;;;5051031;28;20371;-58
2022/12/10 10:54:29;;;;;;;;;;;-0.80;99.90;;;;;;5053715;28;19936;-60
2022/12/10 10:56:55;;;;;;;;;;;-0.90;99.90;;;;;;5051269;28;20330;-58
2022/12/10 10:59:31;;;;;;;;;;;-0.90;99.90;;;;;;5061596;28;19909;-55
2022/12/10 11:02:00;;;;;;;;;;;-0.90;99.90;;;;;;5041045;28;19924;-59
2022/12/10 11:04:29;;;;;;;;;;;-1.00;99.90;;;;;;5054594;28;19913;-59
2022/12/10 11:06:56;;;;;;;;;;;-1.00;99.90;;;;;;5047931;28;20005;-56
2022/12/10 11:09:25;;;;;;;;;;;-1.00;99.90;;;;;;5051644;28;20028;-59
2022/12/10 11:11:52;;;;;;;;;;;-1.00;99.90;;;;;;5056396;28;19913;-57
2022/12/10 11:14:23;;;;;;;;;;;-1.00;99.90;;;;;;5051286;28;19959;-58
2022/12/10 11:16:48;;;;;;;;;;;-1.00;99.90;;;;;;5058203;28;19985;-57
2022/12/10 11:19:22;;;;;;;;;;;-0.90;99.90;;;;;;5051019;28;20371;-58
2022/12/10 11:21:48;;;;;;;;;;;-1.00;99.90;;;;;;5059511;28;20596;-58
2022/12/10 11:24:16;;;;;;;;;;;-1.00;99.90;;;;;;5051039;28;20200;-59
2022/12/10 11:26:47;;;;;;;;;;;-0.90;99.90;;;;;;5053238;28;19909;-56
2022/12/10 11:29:31;;;;;;;;;;;-0.90;99.90;;;;;;5051941;28;19913;-59
2022/12/10 11:32:21;;;;;;;;;;;-0.90;99.90;;;;;;5049499;28;19913;-59
2022/12/10 11:35:01;;;;;;;;;;;-0.80;99.90;;;;;;5050274;28;19920;-59
2022/12/10 11:37:32;;;;;;;;;;;-0.80;99.90;;;;;;5045816;28;19913;-58
2022/12/10 11:39:57;;;;;;;;;;;-0.80;99.90;;;;;;5043868;28;20007;-54
2022/12/10 11:42:26;;;;;;;;;;;-0.80;99.90;;;;;;5051710;28;19921;-57
2022/12/10 11:45:06;;;;;;;;;;;-0.70;99.90;;;;;;5055148;28;19912;-57
2022/12/10 11:47:32;;;;;;;;;;;-0.70;99.90;;;;;;5052123;28;19913;-58
2022/12/10 11:49:57;;;;;;;;;;;-0.70;99.90;;;;;;5055913;28;19909;-58
2022/12/10 11:52:29;;;;;;;;;;;-0.80;99.90;;;;;;5060355;28;19935;-60
2022/12/10 11:54:55;;;;;;;;;;;-0.80;99.90;;;;;;5047986;28;19909;-58
2022/12/10 11:57:39;;;;;;;;;;;-0.80;99.90;;;;;;5050714;28;19913;-57
2022/12/10 12:00:13;;;;;;;;;;;-0.80;99.90;;;;;;5049911;28;19917;-59
2022/12/10 12:02:48;;;;;;;;;;;-0.80;99.90;;;;;;5042204;28;20000;-59
2022/12/10 12:05:13;;;;;;;;;;;-0.80;99.90;;;;;;5045557;28;19921;-59
2022/12/10 12:07:45;;;;;;;;;;;-0.80;99.90;;;;;;5050028;28;19919;-58
2022/12/10 12:10:19;;;;;;;;;;;-0.80;99.90;;;;;;5046438;28;19956;-59
2022/12/10 12:12:51;;;;;;;;;;;-0.80;99.90;;;;;;5052016;28;20486;-59
2022/12/10 12:15:17;;;;;;;;;;;-0.80;99.90;;;;;;5045641;28;19913;-58
2022/12/10 12:17:51;;;;;;;;;;;-0.80;99.90;;;;;;5052670;28;20473;-59
2022/12/10 12:20:27;;;;;;;;;;;-0.80;99.90;;;;;;5044676;28;19913;-60
2022/12/10 12:22:56;;;;;;;;;;;-0.80;99.90;;;;;;5053551;28;20306;-60
2022/12/10 12:25:27;;;;;;;;;;;-0.80;99.90;;;;;;5043857;28;19921;-58
2022/12/10 12:28:03;;;;;;;;;;;-0.80;99.90;;;;;;5053690;28;19940;-59
2022/12/10 12:30:32;;;;;;;;;;;-0.70;99.90;;;;;;5048935;28;20205;-58
2022/12/10 12:33:00;;;;;;;;;;;-0.70;99.90;;;;;;5050142;28;19952;-56
2022/12/10 12:35:35;;;;;;;;;;;-0.70;99.90;;;;;;5049234;28;19951;-59
2022/12/10 12:38:14;;;;;;;;;;;-0.70;99.90;;;;;;5042703;28;20007;-59
2022/12/10 12:40:42;;;;;;;;;;;-0.70;99.90;;;;;;5046579;28;19919;-59
2022/12/10 12:43:21;;;;;;;;;;;-0.70;99.90;;;;;;5049305;28;20072;-58
2022/12/10 12:45:48;;;;;;;;;;;-0.60;99.90;;;;;;5044247;28;19912;-57
2022/12/10 12:48:14;;;;;;;;;;;-0.60;99.90;;;;;;5049859;28;20419;-57
2022/12/10 12:50:44;;;;;;;;;;;-0.60;99.90;;;;;;5054754;28;20137;-56
2022/12/10 12:53:12;;;;;;;;;;;-0.60;99.90;;;;;;5037908;28;19913;-56
2022/12/10 12:55:37;;;;;;;;;;;-0.60;99.90;;;;;;5050933;28;20004;-58
2022/12/10 12:58:23;;;;;;;;;;;-0.70;99.90;;;;;;5054269;28;20043;-58
2022/12/10 13:00:51;;;;;;;;;;;-0.70;99.90;;;;;;5051356;28;19920;-57
2022/12/10 13:03:27;;;;;;;;;;;-0.80;99.90;;;;;;5054985;28;19916;-58
2022/12/10 13:05:54;;;;;;;;;;;-0.80;99.90;;;;;;5052448;28;20011;-60
2022/12/10 13:08:19;;;;;;;;;;;-0.80;99.90;;;;;;5048741;28;20375;-59
2022/12/10 13:10:53;;;;;;;;;;;-0.80;99.90;;;;;;5053242;28;19915;-59
2022/12/10 13:13:24;;;;;;;;;;;-0.90;99.90;;;;;;5048997;28;19913;-59
2022/12/10 13:15:50;;;;;;;;;;;-0.80;99.90;;;;;;5053548;28;19963;-59
2022/12/10 13:18:18;;;;;;;;;;;-0.80;99.90;;;;;;5049656;28;19945;-59
2022/12/10 13:20:53;;;;;;;;;;;-0.80;99.90;;;;;;5054754;28;20091;-60
2022/12/10 13:23:24;;;;;;;;;;;-0.90;99.90;;;;;;5041635;28;19913;-60
2022/12/10 13:25:50;;;;;;;;;;;-0.90;99.90;;;;;;5048486;28;19920;-58
2022/12/10 13:28:24;;;;;;;;;;;-0.90;99.90;;;;;;5037345;28;19912;-58
2022/12/10 13:31:05;;;;;;;;;;;-0.90;99.90;;;;;;5041470;28;19959;-59
2022/12/10 13:33:45;;;;;;;;;;;-0.90;99.90;;;;;;5054595;28;19917;-59
2022/12/10 13:36:11;;;;;;;;;;;-1.00;99.90;;;;;;5044363;28;20393;-58
2022/12/10 13:38:54;;;;;;;;;;;-1.00;99.90;;;;;;5044432;28;19912;-58
2022/12/10 13:44:24;;;;;;;;;;;-1.00;99.90;;;;;;5050829;28;19915;-59
2022/12/10 13:46:58;;;;;;;;;;;-1.00;99.90;;;;;;5051917;28;19917;-57
2022/12/10 13:49:25;;;;;;;;;;;-1.10;99.90;;;;;;5057856;28;20371;-59
2022/12/10 13:52:04;;;;;;;;;;;-1.10;99.90;;;;;;5058911;28;19908;-59
2022/12/10 13:54:30;;;;;;;;;;;-1.10;99.90;;;;;;5052299;28;19912;-58
2022/12/10 13:56:55;;;;;;;;;;;-1.10;99.90;;;;;;5052274;28;19920;-59
2022/12/10 13:59:30;;;;;;;;;;;-1.10;99.90;;;;;;5057514;28;20379;-60
2022/12/10 14:02:14;;;;;;;;;;;-1.10;99.90;;;;;;5051884;28;19913;-60
2022/12/10 14:05:03;;;;;;;;;;;-1.10;99.90;;;;;;5057937;28;19921;-60
2022/12/10 14:07:29;;;;;;;;;;;-1.10;99.90;;;;;;5050335;28;19913;-59
2022/12/10 14:09:57;;;;;;;;;;;-1.10;99.90;;;;;;5049396;28;19913;-61
2022/12/10 14:12:22;;;;;;;;;;;-1.10;99.90;;;;;;5054624;28;20375;-59
2022/12/10 14:14:54;;;;;;;;;;;-1.20;99.90;;;;;;5052422;28;19921;-61
2022/12/10 14:17:21;;;;;;;;;;;-1.20;99.90;;;;;;5066535;28;19958;-58
2022/12/10 14:19:48;;;;;;;;;;;-1.20;99.90;;;;;;5052373;28;19923;-57
2022/12/10 14:22:16;;;;;;;;;;;-1.40;99.90;;;;;;5050084;28;19909;-59
2022/12/10 14:24:49;;;;;;;;;;;-1.50;99.90;;;;;;5053038;28;19917;-60
2022/12/10 14:27:16;;;;;;;;;;;-1.50;99.90;;;;;;5054420;28;19913;-56
2022/12/10 14:29:49;;;;;;;;;;;-1.60;99.90;;;;;;5061666;28;19909;-59
2022/12/10 14:32:17;;;;;;;;;;;-1.60;99.90;;;;;;5062185;28;20382;-59
2022/12/10 14:34:43;;;;;;;;;;;-1.60;99.90;;;;;;5054572;28;20003;-56
2022/12/10 14:37:10;;;;;;;;;;;-1.60;99.90;;;;;;5055156;28;20335;-59
2022/12/10 14:39:38;;;;;;;;;;;-1.50;99.90;;;;;;5050197;28;19963;-60
2022/12/10 14:42:05;;;;;;;;;;;-1.40;99.90;;;;;;5042814;22;19925;-58
2022/12/10 14:44:31;;;;;;;;;;;-1.40;99.90;;;;;;5019858;28;19914;-58